createdAt,value
2023-05-18T00:00:18.243Z,6.35
2023-05-18T00:02:50.816Z,5.25
2023-05-18T00:05:20.518Z,6.53
2023-05-18T00:07:47.950Z,5.68
2023-05-18T00:10:15.089Z,5.57
2023-05-18T00:12:42.093Z,6.13
2023-05-18T00:15:10.635Z,5.40
2023-05-18T00:17:38.104Z,5.78
2023-05-18T00:20:06.663Z,5.28
2023-05-18T00:22:34.022Z,5.78
2023-05-18T00:25:00.992Z,5.53
2023-05-18T00:27:28.295Z,5.85
2023-05-18T00:29:55.601Z,5.88
2023-05-18T00:32:23.914Z,5.30
2023-05-18T00:34:51.049Z,5.60
2023-05-18T00:37:21.309Z,5.65
2023-05-18T00:39:48.205Z,5.60
2023-05-18T00:42:15.659Z,5.93
2023-05-18T00:44:42.598Z,6.53
2023-05-18T00:47:09.669Z,5.35
2023-05-18T00:49:36.546Z,8.73
2023-05-18T00:52:04.174Z,5.80
2023-05-18T00:54:33.299Z,6.63
2023-05-18T00:57:02.240Z,5.75
2023-05-18T00:59:29.677Z,5.45
2023-05-18T01:01:58.073Z,5.85
2023-05-18T01:04:27.955Z,5.50
2023-05-18T01:06:56.788Z,6.15
2023-05-18T01:09:25.210Z,5.47
2023-05-18T01:12:32.942Z,6.15
2023-05-18T01:15:34.802Z,5.50
2023-05-18T01:18:05.281Z,5.82
2023-05-18T01:20:43.528Z,5.68
2023-05-18T01:23:33.927Z,5.57
2023-05-18T01:26:13.528Z,5.20
2023-05-18T01:28:40.466Z,5.90
2023-05-18T01:31:11.340Z,5.72
2023-05-18T01:33:38.247Z,5.88
2023-05-18T01:36:08.923Z,5.55
2023-05-18T01:38:35.820Z,5.03
2023-05-18T01:41:23.585Z,4.97
2023-05-18T01:44:04.233Z,5.35
2023-05-18T01:46:42.345Z,5.00
2023-05-18T01:49:21.330Z,5.30
2023-05-18T01:51:50.677Z,5.38
2023-05-18T01:54:19.435Z,4.80
2023-05-18T01:56:47.446Z,6.40
2023-05-18T01:59:15.517Z,4.85
2023-05-18T02:01:42.599Z,4.75
2023-05-18T02:04:10.713Z,5.15
2023-05-18T02:06:38.228Z,5.35
2023-05-18T02:09:05.704Z,5.60
2023-05-18T02:11:33.681Z,5.13
2023-05-18T02:14:01.644Z,5.95
2023-05-18T02:16:28.504Z,5.13
2023-05-18T02:18:56.772Z,4.72
2023-05-18T02:21:23.649Z,5.07
2023-05-18T02:23:51.064Z,4.88
2023-05-18T02:26:17.907Z,4.75
2023-05-18T02:28:44.987Z,5.15
2023-05-18T02:31:12.382Z,5.25
2023-05-18T02:33:43.383Z,5.05
2023-05-18T02:36:12.311Z,4.85
2023-05-18T02:38:42.953Z,5.18
2023-05-18T02:41:10.963Z,5.07
2023-05-18T02:43:39.866Z,5.28
2023-05-18T02:46:07.268Z,4.82
2023-05-18T02:48:34.256Z,5.63
2023-05-18T02:51:01.410Z,5.07
2023-05-18T02:53:28.337Z,4.38
2023-05-18T02:55:59.711Z,5.25
2023-05-18T02:58:27.768Z,4.20
2023-05-18T03:00:55.642Z,4.63
2023-05-18T03:03:24.348Z,4.60
2023-05-18T03:05:54.056Z,4.88
2023-05-18T03:08:23.445Z,5.32
2023-05-18T03:10:51.028Z,5.15
2023-05-18T03:13:18.052Z,4.60
2023-05-18T03:15:51.070Z,5.03
2023-05-18T03:18:19.275Z,4.90
2023-05-18T03:20:47.340Z,6.13
2023-05-18T03:23:14.789Z,4.82
2023-05-18T03:25:43.251Z,4.80
2023-05-18T03:28:10.132Z,4.95
2023-05-18T03:30:37.531Z,4.32
2023-05-18T03:33:04.678Z,4.75
2023-05-18T03:35:31.983Z,4.30
2023-05-18T03:37:58.974Z,6.85
2023-05-18T03:40:26.269Z,4.82
2023-05-18T03:42:53.130Z,3.95
2023-05-18T03:45:20.791Z,4.32
2023-05-18T03:47:47.849Z,4.40
2023-05-18T03:50:15.884Z,4.55
2023-05-18T03:52:44.658Z,5.20
2023-05-18T03:55:12.306Z,4.18
2023-05-18T03:57:39.787Z,4.30
2023-05-18T04:00:13.216Z,4.80
2023-05-18T04:02:40.498Z,4.72
2023-05-18T04:05:10.588Z,4.30
2023-05-18T04:07:44.228Z,5.25
2023-05-18T04:10:12.176Z,4.30
2023-05-18T04:12:39.464Z,4.63
2023-05-18T04:15:08.812Z,4.55
2023-05-18T04:17:36.344Z,4.85
2023-05-18T04:20:13.874Z,4.28
2023-05-18T04:22:46.754Z,4.20
2023-05-18T04:27:51.564Z,4.15
2023-05-18T04:30:24.333Z,4.18
2023-05-18T04:32:53.217Z,4.25
2023-05-18T04:35:30.530Z,3.95
2023-05-18T04:38:02.219Z,4.13
2023-05-18T04:40:54.812Z,3.67
2023-05-18T04:43:25.570Z,3.88
2023-05-18T04:45:58.479Z,4.15
2023-05-18T04:51:15.159Z,3.80
2023-05-18T04:56:55.562Z,4.63
2023-05-18T04:59:26.748Z,4.05
2023-05-18T05:02:03.226Z,3.88
2023-05-18T05:04:35.407Z,3.50
2023-05-18T05:07:12.867Z,3.65
2023-05-18T05:09:43.634Z,4.15
2023-05-18T05:12:18.289Z,4.75
2023-05-18T05:17:31.980Z,3.80
2023-05-18T05:20:05.312Z,4.00
2023-05-18T05:22:36.726Z,3.60
2023-05-18T05:25:34.383Z,3.70
2023-05-18T05:28:02.053Z,3.67
2023-05-18T05:30:31.638Z,4.10
2023-05-18T05:33:07.322Z,3.78
2023-05-18T05:35:44.594Z,3.60
2023-05-18T05:38:29.245Z,4.28
2023-05-18T05:41:04.334Z,4.20
2023-05-18T05:43:33.972Z,4.00
2023-05-18T05:46:32.014Z,3.20
2023-05-18T05:49:15.700Z,3.10
2023-05-18T05:57:29.616Z,3.58
2023-05-18T06:00:06.673Z,3.75
2023-05-18T06:05:36.565Z,4.80
2023-05-18T06:08:07.912Z,4.22
2023-05-18T06:10:41.693Z,3.70
2023-05-18T06:16:09.501Z,3.47
2023-05-18T06:18:44.393Z,3.40
2023-05-18T06:21:15.835Z,4.30
2023-05-18T06:24:09.751Z,3.70
2023-05-18T06:26:51.837Z,3.88
2023-05-18T06:35:12.992Z,4.70
2023-05-18T06:40:45.115Z,5.43
2023-05-18T06:43:44.703Z,4.90
2023-05-18T06:46:39.601Z,4.43
2023-05-18T06:52:41.526Z,3.97
2023-05-18T07:28:47.720Z,5.07
2023-05-18T07:31:21.472Z,4.68
2023-05-18T07:33:54.754Z,4.40
2023-05-18T07:39:19.469Z,4.20
2023-05-18T07:41:50.703Z,4.03
2023-05-18T07:47:23.559Z,4.32
2023-05-18T07:49:51.875Z,3.78
2023-05-18T07:52:22.126Z,4.82
2023-05-18T07:54:50.335Z,5.22
2023-05-18T07:57:19.206Z,4.20
2023-05-18T07:59:58.583Z,5.88
2023-05-18T08:02:26.947Z,3.90
2023-05-18T08:04:54.983Z,4.55
2023-05-18T08:07:27.455Z,4.75
2023-05-18T08:18:59.632Z,3.83
2023-05-18T11:01:16.678Z,4.25
2023-05-18T11:03:58.193Z,4.38
2023-05-18T11:06:55.696Z,4.55
2023-05-18T11:12:27.633Z,4.78
2023-05-18T11:17:47.226Z,4.72
2023-05-18T11:34:05.917Z,4.70
2023-05-18T22:18:22.948Z,6.13
2023-05-18T22:24:22.952Z,6.05
2023-05-18T22:27:33.476Z,5.75
2023-05-18T22:36:15.208Z,5.53
2023-05-18T22:41:28.643Z,5.78
2023-05-18T22:44:05.278Z,6.28
2023-05-18T22:46:39.463Z,5.82
2023-05-18T22:49:09.561Z,6.03
2023-05-18T22:51:41.394Z,5.82
2023-05-18T22:54:12.983Z,6.45
2023-05-18T22:56:45.859Z,6.22
2023-05-18T22:59:25.996Z,6.07
2023-05-18T23:18:02.758Z,7.65
2023-05-18T23:20:39.537Z,7.85
2023-05-18T23:23:12.770Z,7.13
2023-05-18T23:25:46.807Z,6.82
2023-05-18T23:28:17.329Z,8.70
2023-05-18T23:30:56.392Z,8.25
2023-05-18T23:34:01.605Z,7.80
2023-05-18T23:36:31.161Z,8.30
2023-05-18T23:39:11.881Z,8.70
2023-05-18T23:41:47.112Z,8.35
2023-05-18T23:44:15.453Z,8.43
2023-05-18T23:46:47.182Z,8.10
2023-05-18T23:49:15.185Z,9.32
2023-05-18T23:51:47.705Z,9.20
2023-05-18T23:54:16.048Z,9.37
2023-05-18T23:56:45.567Z,9.63
2023-05-18T23:59:16.594Z,9.18
